Time;durP1;ratioP1;P1;durP2;ratioP2;P2;SDS_P1;SDS_P2;PMS_P1;PMS_P2;Temp;Humidity;BMP_temperature;BMP_pressure;BME280_temperature;BME280_humidity;BME280_pressure;Samples;Min_cycle;Max_cycle;Signal;HPM_P1;HPM_P2
2021/05/28 00:02:08;;;;;;;8.90;6.85;;;20.50;46.50;;;;;;5006757;28;20514;-63
2021/05/28 00:04:34;;;;;;;12.55;7.55;;;20.50;46.70;;;;;;5015652;28;20042;-63
2021/05/28 00:07:00;;;;;;;7.90;7.10;;;20.40;46.80;;;;;;5009529;28;27371;-63
2021/05/28 00:09:25;;;;;;;9.10;6.40;;;20.40;46.70;;;;;;5012346;28;20045;-63
2021/05/28 00:11:52;;;;;;;7.90;6.53;;;20.30;46.80;;;;;;5008897;28;20065;-63
2021/05/28 00:14:17;;;;;;;7.10;6.40;;;20.30;46.80;;;;;;5017440;28;20048;-63
2021/05/28 00:16:43;;;;;;;9.93;6.47;;;20.20;46.90;;;;;;4997696;28;20045;-63
2021/05/28 00:19:09;;;;;;;8.50;6.07;;;20.30;46.80;;;;;;5013299;28;20053;-64
2021/05/28 00:21:35;;;;;;;7.68;5.85;;;20.20;46.80;;;;;;5015740;28;20491;-64
2021/05/28 00:24:01;;;;;;;9.73;5.80;;;20.20;46.80;;;;;;5013361;28;20132;-64
2021/05/28 00:26:26;;;;;;;6.47;5.78;;;20.20;46.80;;;;;;5002627;28;20066;-64
2021/05/28 00:28:52;;;;;;;8.02;5.30;;;20.10;46.90;;;;;;5003052;28;20065;-64
2021/05/28 00:31:19;;;;;;;10.43;6.07;;;20.10;46.90;;;;;;5000828;28;20049;-63
2021/05/28 00:33:46;;;;;;;9.63;5.72;;;20.10;46.80;;;;;;5010036;28;20045;-63
2021/05/28 00:36:12;;;;;;;6.45;4.88;;;20.00;47.00;;;;;;5007197;28;20719;-62
2021/05/28 00:38:38;;;;;;;5.47;4.95;;;20.00;47.20;;;;;;5004961;28;20053;-63
2021/05/28 00:41:04;;;;;;;8.82;5.68;;;20.00;46.90;;;;;;5014349;28;20107;-63
2021/05/28 00:43:30;;;;;;;7.85;4.78;;;20.10;46.90;;;;;;4999406;28;20127;-63
2021/05/28 00:45:56;;;;;;;4.82;4.30;;;20.00;46.80;;;;;;5013711;28;20056;-64
2021/05/28 00:48:22;;;;;;;5.07;4.57;;;19.90;47.00;;;;;;5005530;28;20385;-63
2021/05/28 00:50:48;;;;;;;6.45;4.35;;;19.90;46.90;;;;;;5010234;28;20041;-63
2021/05/28 00:53:14;;;;;;;5.70;3.58;;;19.80;47.00;;;;;;4997895;28;20506;-63
2021/05/28 00:55:40;;;;;;;4.38;3.25;;;19.80;46.50;;;;;;5000684;28;20048;-64
2021/05/28 00:58:07;;;;;;;4.18;3.15;;;19.70;47.20;;;;;;5013653;28;20041;-64
2021/05/28 01:00:34;;;;;;;3.72;3.00;;;19.70;46.40;;;;;;5013657;28;20042;-64
2021/05/28 01:03:00;;;;;;;3.47;3.22;;;19.60;46.40;;;;;;5013095;28;20053;-64
2021/05/28 01:05:26;;;;;;;3.42;2.25;;;19.70;46.30;;;;;;5014716;28;20135;-64
2021/05/28 01:07:52;;;;;;;4.75;2.45;;;19.50;46.20;;;;;;5013840;28;21218;-64
2021/05/28 01:10:18;;;;;;;3.25;2.20;;;19.60;46.30;;;;;;5014832;28;20041;-64
2021/05/28 01:12:44;;;;;;;4.82;2.40;;;19.50;46.20;;;;;;5016553;28;20086;-64
2021/05/28 01:15:10;;;;;;;3.55;2.33;;;19.50;46.40;;;;;;5029248;28;20699;-64
2021/05/28 01:17:36;;;;;;;2.63;2.42;;;19.40;46.40;;;;;;5029496;28;20409;-62
2021/05/28 01:20:06;;;;;;;2.03;1.85;;;19.40;46.50;;;;;;5006850;28;20145;-63
2021/05/28 01:22:33;;;;;;;3.35;1.73;;;19.30;46.70;;;;;;5004012;28;20095;-63
2021/05/28 01:25:00;;;;;;;2.20;2.10;;;19.40;46.70;;;;;;5013888;28;20042;-63
2021/05/28 01:27:30;;;;;;;3.80;2.47;;;19.40;46.70;;;;;;5009085;28;20096;-63
2021/05/28 01:29:56;;;;;;;3.88;2.50;;;19.40;47.00;;;;;;5004656;28;20042;-63
2021/05/28 01:32:22;;;;;;;6.03;2.33;;;19.40;46.80;;;;;;5010126;28;20068;-63
2021/05/28 01:34:48;;;;;;;3.50;2.30;;;19.40;46.90;;;;;;5018226;28;20038;-63
2021/05/28 01:37:14;;;;;;;3.17;2.13;;;19.40;47.00;;;;;;5012278;28;20512;-63
2021/05/28 01:39:44;;;;;;;2.33;2.13;;;19.40;47.10;;;;;;5020421;28;20049;-63
2021/05/28 01:42:10;;;;;;;3.78;2.25;;;19.20;47.60;;;;;;5019806;28;20072;-63
2021/05/28 01:44:36;;;;;;;3.03;2.55;;;19.20;47.30;;;;;;5015686;28;20049;-64
2021/05/28 01:47:01;;;;;;;2.60;2.40;;;19.20;47.30;;;;;;5012406;28;20075;-63
2021/05/28 01:49:27;;;;;;;2.60;2.40;;;19.10;47.30;;;;;;5022416;28;20047;-64
2021/05/28 01:51:52;;;;;;;3.40;2.45;;;19.20;47.40;;;;;;5015633;28;20081;-64
2021/05/28 01:54:19;;;;;;;3.78;2.05;;;19.10;47.60;;;;;;5018772;28;20437;-64
2021/05/28 01:56:47;;;;;;;2.35;2.15;;;19.10;47.80;;;;;;5012954;28;20470;-64
2021/05/28 01:59:32;;;;;;;2.80;2.15;;;19.10;47.90;;;;;;5020372;28;20064;-64
2021/05/28 02:01:58;;;;;;;2.47;2.10;;;19.00;48.10;;;;;;5005757;28;20037;-64
2021/05/28 02:04:24;;;;;;;2.78;2.53;;;19.00;48.20;;;;;;5017233;28;20575;-64
2021/05/28 02:06:51;;;;;;;2.92;2.72;;;18.90;48.60;;;;;;5014015;28;20522;-64
2021/05/28 02:09:17;;;;;;;2.65;2.38;;;18.90;48.70;;;;;;5016404;28;20267;-64
2021/05/28 02:11:43;;;;;;;3.60;2.25;;;18.90;48.70;;;;;;5016587;28;20494;-63
2021/05/28 02:14:09;;;;;;;3.08;2.30;;;18.80;48.50;;;;;;5011710;28;20505;-64
2021/05/28 02:16:35;;;;;;;3.22;2.50;;;18.90;48.80;;;;;;4993770;28;20042;-63
2021/05/28 02:19:02;;;;;;;2.65;1.95;;;18.80;48.80;;;;;;4999179;28;20053;-63
2021/05/28 02:21:28;;;;;;;3.00;2.35;;;18.80;48.80;;;;;;5008169;28;20046;-64
2021/05/28 02:23:54;;;;;;;2.72;2.30;;;18.80;48.90;;;;;;5006925;28;20029;-63
2021/05/28 02:26:20;;;;;;;2.13;1.90;;;18.80;49.00;;;;;;5013518;28;20443;-63
2021/05/28 02:28:45;;;;;;;2.80;2.17;;;18.70;48.90;;;;;;5019506;28;20560;-63
2021/05/28 02:31:12;;;;;;;2.33;2.00;;;18.70;48.90;;;;;;5020634;28;20507;-63
2021/05/28 02:33:38;;;;;;;2.40;2.20;;;18.70;49.20;;;;;;5026774;28;20048;-64
2021/05/28 02:36:05;;;;;;;2.67;2.47;;;18.70;49.00;;;;;;5020640;28;20038;-64
2021/05/28 02:38:30;;;;;;;2.30;2.10;;;18.60;49.10;;;;;;5002465;28;20037;-64
2021/05/28 02:40:56;;;;;;;2.05;1.88;;;18.70;49.40;;;;;;5013237;28;20041;-64
2021/05/28 02:43:23;;;;;;;3.55;2.25;;;18.60;48.80;;;;;;5004767;28;20050;-64
2021/05/28 02:45:48;;;;;;;4.10;1.73;;;18.60;48.90;;;;;;5010207;28;20131;-64
2021/05/28 02:48:14;;;;;;;2.30;2.10;;;18.60;48.70;;;;;;5014880;28;20403;-64
2021/05/28 02:50:40;;;;;;;2.15;1.77;;;18.60;48.70;;;;;;5016460;28;20368;-64
2021/05/28 02:53:05;;;;;;;1.63;1.42;;;18.60;48.70;;;;;;4995184;28;20474;-64
2021/05/28 02:55:31;;;;;;;2.78;1.52;;;18.50;48.60;;;;;;5010330;28;20038;-64
2021/05/28 02:57:57;;;;;;;1.52;1.42;;;18.50;48.80;;;;;;4997758;28;20081;-64
2021/05/28 03:00:24;;;;;;;2.00;1.77;;;18.50;48.60;;;;;;5010830;28;20493;-64
2021/05/28 03:02:50;;;;;;;2.13;1.80;;;18.50;48.40;;;;;;5009525;28;20042;-64
2021/05/28 03:05:16;;;;;;;2.53;1.90;;;18.40;48.60;;;;;;5011042;28;20041;-64
2021/05/28 03:07:42;;;;;;;2.95;1.90;;;18.50;48.60;;;;;;5009453;28;20037;-63
2021/05/28 03:10:08;;;;;;;1.42;1.33;;;18.40;48.40;;;;;;5007070;28;20064;-65
2021/05/28 03:12:34;;;;;;;1.52;1.42;;;18.40;48.40;;;;;;5006526;28;20120;-65
2021/05/28 03:15:00;;;;;;;2.70;1.60;;;18.40;48.30;;;;;;5002476;28;20129;-64
2021/05/28 03:17:26;;;;;;;1.70;1.58;;;18.40;48.30;;;;;;4998917;28;20096;-64
2021/05/28 03:19:52;;;;;;;1.77;1.30;;;18.40;48.30;;;;;;5001774;28;20037;-64
2021/05/28 03:22:31;;;;;;;2.80;1.73;;;18.30;48.30;;;;;;5011983;28;20049;-64
2021/05/28 03:25:01;;;;;;;1.95;1.50;;;18.20;48.40;;;;;;5012314;28;20569;-64
2021/05/28 03:27:27;;;;;;;4.95;1.67;;;18.30;48.40;;;;;;5010867;28;20105;-64
2021/05/28 03:29:52;;;;;;;2.65;2.00;;;18.30;48.30;;;;;;5007668;28;20038;-64
2021/05/28 03:32:18;;;;;;;2.25;1.90;;;18.30;48.20;;;;;;5013106;28;20406;-63
2021/05/28 03:34:44;;;;;;;2.55;1.85;;;18.30;48.30;;;;;;5008403;28;20041;-63
2021/05/28 03:37:10;;;;;;;2.13;1.60;;;18.40;48.20;;;;;;5014931;28;20061;-63
2021/05/28 03:39:35;;;;;;;1.83;1.63;;;18.40;48.50;;;;;;4994762;28;20140;-63
2021/05/28 03:42:01;;;;;;;2.40;1.50;;;18.40;48.30;;;;;;5017875;28;20049;-63
2021/05/28 03:44:27;;;;;;;2.10;1.50;;;18.40;48.40;;;;;;5018150;28;20037;-63
2021/05/28 03:46:54;;;;;;;2.75;1.70;;;18.40;49.00;;;;;;5018587;28;20645;-62
2021/05/28 03:49:19;;;;;;;2.17;1.98;;;18.30;48.30;;;;;;5008114;28;20060;-63
2021/05/28 03:51:45;;;;;;;2.80;1.75;;;18.30;48.20;;;;;;5004382;28;20037;-63
2021/05/28 03:54:11;;;;;;;1.63;1.52;;;18.30;48.40;;;;;;4995129;28;20464;-63
2021/05/28 03:56:36;;;;;;;4.18;2.42;;;18.20;48.50;;;;;;5007179;28;20427;-63
2021/05/28 03:59:02;;;;;;;3.28;1.90;;;18.30;48.40;;;;;;5000890;28;20089;-63
2021/05/28 04:01:28;;;;;;;2.60;1.92;;;18.20;48.40;;;;;;5005757;28;20041;-62
2021/05/28 04:03:55;;;;;;;2.35;1.73;;;18.20;48.50;;;;;;4996306;28;20089;-63
2021/05/28 04:06:20;;;;;;;2.78;1.90;;;18.20;48.40;;;;;;4994136;28;20129;-63
2021/05/28 04:08:46;;;;;;;3.15;1.63;;;18.10;48.30;;;;;;5003880;28;20086;-63
2021/05/28 04:11:11;;;;;;;2.13;1.95;;;18.20;48.50;;;;;;5014487;28;20128;-62
2021/05/28 04:13:37;;;;;;;2.10;1.92;;;18.20;48.50;;;;;;5016023;28;20148;-63
2021/05/28 04:16:03;;;;;;;2.72;2.20;;;18.20;48.40;;;;;;5002519;28;20069;-63
2021/05/28 04:18:29;;;;;;;2.30;2.10;;;18.10;48.30;;;;;;5010477;28;20045;-63
2021/05/28 04:20:54;;;;;;;3.53;2.10;;;18.20;48.50;;;;;;4999038;28;20045;-64
2021/05/28 04:23:21;;;;;;;4.93;2.13;;;18.20;48.40;;;;;;5008850;28;20194;-63
2021/05/28 04:25:47;;;;;;;2.80;1.95;;;18.20;48.30;;;;;;5004534;28;20091;-63
2021/05/28 04:28:13;;;;;;;1.88;1.73;;;18.20;48.20;;;;;;5012099;28;20054;-63
2021/05/28 04:30:39;;;;;;;3.08;2.05;;;18.10;48.20;;;;;;5012008;28;20042;-63
2021/05/28 04:33:05;;;;;;;3.38;2.22;;;18.20;48.30;;;;;;5035997;28;20045;-64
2021/05/28 04:35:30;;;;;;;2.10;2.00;;;18.20;48.10;;;;;;5011350;28;20060;-63
2021/05/28 04:37:56;;;;;;;4.18;2.40;;;18.20;48.30;;;;;;4999625;28;20049;-63
2021/05/28 04:40:22;;;;;;;2.92;2.13;;;18.20;48.40;;;;;;5014316;28;20065;-63
2021/05/28 04:42:48;;;;;;;2.22;2.03;;;18.20;48.20;;;;;;5014070;28;20041;-63
2021/05/28 04:45:14;;;;;;;2.80;1.90;;;18.20;47.80;;;;;;5008108;28;20034;-63
2021/05/28 04:47:39;;;;;;;1.73;1.63;;;18.30;48.10;;;;;;5002517;28;20090;-63
2021/05/28 04:50:06;;;;;;;2.05;1.70;;;18.30;48.10;;;;;;5005457;28;20376;-63
2021/05/28 04:52:31;;;;;;;2.92;2.10;;;18.30;47.70;;;;;;5003564;28;20064;-64
2021/05/28 04:54:57;;;;;;;2.65;2.45;;;18.30;47.90;;;;;;5003651;28;20597;-63
2021/05/28 04:57:23;;;;;;;1.80;1.70;;;18.30;47.60;;;;;;5017857;28;20072;-63
2021/05/28 04:59:48;;;;;;;3.05;2.10;;;18.40;47.50;;;;;;5013954;28;20062;-63
2021/05/28 05:02:14;;;;;;;2.30;2.10;;;18.50;47.40;;;;;;5011326;28;20050;-63
2021/05/28 05:04:40;;;;;;;3.03;2.03;;;18.50;47.00;;;;;;5002216;28;20146;-64
2021/05/28 05:07:05;;;;;;;2.67;2.08;;;18.60;47.20;;;;;;5013076;28;20037;-64
2021/05/28 05:09:31;;;;;;;2.72;2.40;;;18.60;47.00;;;;;;5012790;28;20042;-62
2021/05/28 05:11:56;;;;;;;2.50;2.30;;;18.70;47.00;;;;;;5018422;28;20098;-62
2021/05/28 05:14:22;;;;;;;2.05;1.95;;;18.70;46.90;;;;;;5010456;28;20052;-62
2021/05/28 05:16:48;;;;;;;1.90;1.80;;;18.70;46.60;;;;;;5004055;28;20042;-63
2021/05/28 05:19:13;;;;;;;3.85;2.00;;;18.60;46.60;;;;;;5007110;28;20046;-62
2021/05/28 05:21:40;;;;;;;5.10;1.98;;;18.70;46.50;;;;;;5018517;28;20081;-63
2021/05/28 05:24:08;;;;;;;2.97;1.88;;;18.80;46.70;;;;;;5009764;28;20463;-62
2021/05/28 05:26:34;;;;;;;3.97;2.22;;;18.90;46.40;;;;;;5019052;28;20033;-62
2021/05/28 05:29:00;;;;;;;3.72;2.22;;;18.90;46.30;;;;;;5003979;28;20037;-62
2021/05/28 05:31:25;;;;;;;2.95;2.42;;;18.80;46.50;;;;;;5015679;28;20044;-62
2021/05/28 05:33:51;;;;;;;3.25;2.40;;;18.80;46.50;;;;;;5020777;28;20033;-63
2021/05/28 05:36:17;;;;;;;3.40;2.42;;;18.90;46.40;;;;;;5028906;28;20029;-63
2021/05/28 05:38:43;;;;;;;3.63;2.20;;;18.90;46.30;;;;;;5025731;28;20061;-63
2021/05/28 05:41:08;;;;;;;2.80;2.20;;;18.90;46.50;;;;;;5021498;28;20106;-63
2021/05/28 05:43:34;;;;;;;3.10;2.00;;;18.90;46.30;;;;;;5027342;28;20049;-63
2021/05/28 05:46:01;;;;;;;3.15;2.22;;;18.90;46.10;;;;;;5018071;28;20034;-63
2021/05/28 05:48:27;;;;;;;1.80;1.70;;;18.90;46.20;;;;;;5013017;28;20042;-63
2021/05/28 05:50:53;;;;;;;2.30;2.10;;;18.90;46.10;;;;;;5000316;28;20781;-63
2021/05/28 05:53:18;;;;;;;3.53;2.03;;;18.80;46.20;;;;;;5016146;28;20038;-63
2021/05/28 05:55:44;;;;;;;4.80;2.80;;;18.90;46.30;;;;;;4998221;28;20040;-63
2021/05/28 05:58:09;;;;;;;3.47;2.20;;;18.90;46.20;;;;;;5016778;28;20095;-63
2021/05/28 06:00:35;;;;;;;2.83;2.63;;;19.00;46.40;;;;;;4996535;28;20073;-63
2021/05/28 06:03:03;;;;;;;3.60;2.50;;;19.00;46.20;;;;;;5006049;28;20377;-63
2021/05/28 06:05:28;;;;;;;2.42;2.17;;;19.00;46.00;;;;;;4984883;28;20050;-63
2021/05/28 06:07:54;;;;;;;6.20;2.10;;;19.00;45.80;;;;;;5018102;28;20044;-63
2021/05/28 06:10:20;;;;;;;5.20;2.13;;;19.00;45.90;;;;;;5007815;28;20037;-62
2021/05/28 06:12:46;;;;;;;2.33;2.00;;;19.10;45.80;;;;;;5012246;28;20066;-62
2021/05/28 06:15:12;;;;;;;3.28;2.03;;;19.10;45.40;;;;;;5031680;28;20050;-62
2021/05/28 06:17:38;;;;;;;2.50;2.30;;;19.20;45.70;;;;;;5001310;28;20034;-62
2021/05/28 06:20:04;;;;;;;6.13;2.55;;;19.10;45.40;;;;;;5020353;28;20068;-63
2021/05/28 06:22:31;;;;;;;4.43;2.40;;;19.10;45.30;;;;;;5028732;28;20045;-67
2021/05/28 06:24:57;;;;;;;14.05;3.67;;;19.10;45.20;;;;;;5018463;28;20034;-67
2021/05/28 06:27:23;;;;;;;6.78;3.83;;;19.20;45.50;;;;;;5004894;28;20038;-67
2021/05/28 06:29:48;;;;;;;4.05;2.22;;;19.20;45.50;;;;;;5022170;28;20072;-61
2021/05/28 06:32:14;;;;;;;5.30;2.85;;;19.20;45.40;;;;;;5025836;28;20411;-62
2021/05/28 06:34:40;;;;;;;3.17;2.30;;;19.20;45.30;;;;;;5019341;28;20049;-63
2021/05/28 06:37:06;;;;;;;4.30;2.72;;;19.30;45.40;;;;;;5022774;28;20398;-64
2021/05/28 06:39:31;;;;;;;4.85;3.08;;;19.40;45.70;;;;;;5023159;28;20045;-63
2021/05/28 06:41:57;;;;;;;5.28;3.05;;;19.50;45.80;;;;;;5020857;28;20125;-64
2021/05/28 06:44:26;;;;;;;7.53;3.63;;;19.50;45.60;;;;;;5022796;28;20042;-63
2021/05/28 06:46:53;;;;;;;6.30;3.72;;;19.50;45.90;;;;;;5003145;28;20095;-63
2021/05/28 06:49:20;;;;;;;6.47;3.33;;;19.60;46.00;;;;;;5024825;28;20037;-64
2021/05/28 06:51:47;;;;;;;7.47;3.45;;;19.60;45.60;;;;;;5017966;28;20038;-62
2021/05/28 06:54:13;;;;;;;5.72;3.42;;;19.70;45.50;;;;;;5016719;28;20083;-64
2021/05/28 06:56:39;;;;;;;7.72;3.30;;;19.70;45.40;;;;;;5002547;28;20118;-65
2021/05/28 06:59:09;;;;;;;4.63;3.38;;;19.70;45.10;;;;;;5016573;28;20049;-63
2021/05/28 07:01:35;;;;;;;5.97;3.38;;;19.80;45.40;;;;;;5023827;28;20045;-63
2021/05/28 07:04:02;;;;;;;3.92;3.15;;;19.80;45.20;;;;;;5016599;28;20041;-63
2021/05/28 07:06:28;;;;;;;5.07;3.30;;;19.80;45.20;;;;;;5012777;28;20045;-64
2021/05/28 07:08:54;;;;;;;4.45;3.03;;;19.80;45.10;;;;;;5017804;28;20041;-63
2021/05/28 07:11:20;;;;;;;4.43;3.38;;;19.90;45.00;;;;;;5020211;28;20088;-63
2021/05/28 07:13:45;;;;;;;3.40;3.10;;;19.90;44.90;;;;;;5030884;28;20041;-62
2021/05/28 07:16:11;;;;;;;5.78;3.55;;;19.90;44.90;;;;;;5021613;28;20125;-64
2021/05/28 07:18:37;;;;;;;6.13;3.35;;;20.00;44.60;;;;;;5016936;28;20076;-64
2021/05/28 07:21:03;;;;;;;5.57;2.90;;;20.00;44.80;;;;;;5040446;28;20482;-63
2021/05/28 07:23:29;;;;;;;4.07;3.30;;;20.00;44.50;;;;;;5019371;28;20053;-64
2021/05/28 07:25:56;;;;;;;5.50;3.85;;;20.20;44.80;;;;;;5021212;28;20041;-63
2021/05/28 07:28:22;;;;;;;5.70;3.80;;;20.20;44.50;;;;;;5018318;28;20080;-63
2021/05/28 07:30:48;;;;;;;5.90;4.47;;;20.20;44.40;;;;;;5014942;28;20081;-63
2021/05/28 07:33:14;;;;;;;4.78;4.18;;;20.30;44.50;;;;;;5010989;28;20088;-63
2021/05/28 07:35:39;;;;;;;5.10;3.33;;;20.20;44.00;;;;;;5009977;28;20037;-64
2021/05/28 07:38:05;;;;;;;5.32;4.05;;;20.30;44.10;;;;;;5011974;28;20104;-64
2021/05/28 07:40:30;;;;;;;4.75;3.53;;;20.30;43.60;;;;;;5011710;28;20125;-63
2021/05/28 07:42:56;;;;;;;7.10;3.88;;;20.40;43.90;;;;;;5010668;28;20038;-63
2021/05/28 07:45:22;;;;;;;8.52;3.97;;;20.50;43.60;;;;;;4992845;28;20420;-63
2021/05/28 07:47:48;;;;;;;3.67;2.83;;;20.60;43.40;;;;;;5003205;28;20052;-62
2021/05/28 07:50:14;;;;;;;4.93;2.92;;;20.70;42.90;;;;;;5017078;28;20052;-64
2021/05/28 07:52:40;;;;;;;8.45;2.60;;;20.70;42.50;;;;;;5024165;28;20059;-64
2021/05/28 07:55:06;;;;;;;3.90;3.10;;;20.70;42.20;;;;;;5013937;28;20053;-62
2021/05/28 07:57:32;;;;;;;4.45;2.88;;;20.70;42.30;;;;;;5016278;28;20517;-62
2021/05/28 07:59:58;;;;;;;2.80;2.30;;;20.70;42.20;;;;;;5016699;28;20053;-63
2021/05/28 08:02:25;;;;;;;10.80;3.65;;;20.80;42.00;;;;;;5017881;28;20679;-63
2021/05/28 08:04:50;;;;;;;5.57;2.97;;;20.80;42.00;;;;;;4992697;28;20045;-63
2021/05/28 08:07:16;;;;;;;6.25;2.88;;;20.80;42.10;;;;;;5004769;28;20038;-63
2021/05/28 08:09:42;;;;;;;5.68;2.83;;;20.90;41.90;;;;;;5003392;28;20515;-61
2021/05/28 08:12:07;;;;;;;4.78;3.03;;;21.00;42.20;;;;;;5005518;28;20176;-62
2021/05/28 08:14:33;;;;;;;7.20;3.58;;;21.00;41.70;;;;;;4999375;28;20597;-62
2021/05/28 08:16:59;;;;;;;3.50;2.42;;;21.00;41.60;;;;;;5002618;28;20133;-63
2021/05/28 08:19:24;;;;;;;7.65;3.60;;;21.00;41.30;;;;;;5006380;28;20050;-64
2021/05/28 08:21:50;;;;;;;3.45;2.67;;;21.00;41.50;;;;;;4991942;28;20118;-63
2021/05/28 08:24:16;;;;;;;7.03;3.03;;;21.10;41.30;;;;;;4995515;28;20046;-63
2021/05/28 08:26:42;;;;;;;6.45;3.45;;;21.10;41.30;;;;;;5006236;28;20038;-63
2021/05/28 08:29:08;;;;;;;7.90;3.58;;;21.10;40.90;;;;;;5008767;28;20119;-63
2021/05/28 08:31:34;;;;;;;4.32;2.83;;;21.10;41.30;;;;;;5000810;28;20033;-62
2021/05/28 08:34:00;;;;;;;4.20;2.88;;;21.30;41.20;;;;;;5001610;28;20173;-63
2021/05/28 08:36:25;;;;;;;4.95;3.47;;;21.30;41.20;;;;;;4999305;28;20128;-63
2021/05/28 08:38:51;;;;;;;3.63;2.58;;;21.40;40.80;;;;;;5000012;28;20065;-62
2021/05/28 08:41:18;;;;;;;4.38;2.80;;;21.40;40.60;;;;;;5017792;28;20384;-61
2021/05/28 08:43:44;;;;;;;4.30;3.00;;;21.40;40.40;;;;;;5001929;28;20095;-63
2021/05/28 08:46:14;;;;;;;6.22;3.72;;;21.50;40.60;;;;;;5004960;28;20055;-63
2021/05/28 08:48:40;;;;;;;4.30;3.28;;;21.50;40.40;;;;;;5012417;28;20100;-62
2021/05/28 08:51:06;;;;;;;5.35;3.17;;;21.60;40.40;;;;;;5004534;28;20086;-63
2021/05/28 08:53:31;;;;;;;6.97;3.90;;;21.60;40.20;;;;;;5012462;28;20072;-63
2021/05/28 08:55:57;;;;;;;6.55;3.05;;;21.60;40.00;;;;;;5008760;28;20046;-63
2021/05/28 08:58:23;;;;;;;3.83;2.30;;;21.70;40.00;;;;;;5017606;28;20136;-63
2021/05/28 09:00:49;;;;;;;2.72;2.33;;;21.70;39.50;;;;;;5009198;28;20061;-63
2021/05/28 09:03:28;;;;;;;6.20;2.25;;;21.70;39.20;;;;;;5013605;28;20088;-63
2021/05/28 09:05:59;;;;;;;2.63;2.20;;;21.70;38.90;;;;;;4985350;28;20124;-63
2021/05/28 09:08:29;;;;;;;5.85;1.88;;;21.70;38.50;;;;;;5006642;28;20149;-63
2021/05/28 09:11:02;;;;;;;2.45;1.80;;;21.90;38.60;;;;;;5011183;28;20046;-63
2021/05/28 09:13:28;;;;;;;3.13;2.17;;;21.80;37.90;;;;;;5006055;28;20037;-63
2021/05/28 09:16:26;;;;;;;3.10;2.75;;;21.90;38.00;;;;;;4991066;28;20030;-63
2021/05/28 09:18:54;;;;;;;3.05;2.65;;;22.00;38.70;;;;;;4997982;28;20053;-62
2021/05/28 09:21:32;;;;;;;3.88;2.60;;;22.00;38.40;;;;;;5001724;28;20042;-62
2021/05/28 09:24:24;;;;;;;5.28;3.28;;;22.10;37.80;;;;;;5006349;28;20222;-64
2021/05/28 09:26:50;;;;;;;5.45;3.00;;;22.00;37.90;;;;;;4997793;28;20066;-63
2021/05/28 09:29:16;;;;;;;4.38;2.80;;;22.20;38.00;;;;;;4991859;28;20169;-63
2021/05/28 09:31:42;;;;;;;3.58;2.70;;;22.20;38.30;;;;;;5013049;28;20037;-63
2021/05/28 09:34:08;;;;;;;10.73;2.58;;;22.20;38.30;;;;;;5009848;28;20208;-65
2021/05/28 09:36:40;;;;;;;2.53;2.08;;;22.20;38.50;;;;;;5010183;28;20092;-63
2021/05/28 09:39:08;;;;;;;3.10;2.80;;;22.30;37.40;;;;;;4996518;28;20037;-63
2021/05/28 09:41:48;;;;;;;5.15;3.20;;;22.40;37.10;;;;;;5000032;28;20091;-63
2021/05/28 09:44:29;;;;;;;3.92;3.55;;;22.50;37.10;;;;;;5006780;28;20079;-63
2021/05/28 09:47:01;;;;;;;5.38;3.58;;;22.50;37.60;;;;;;4983774;28;20041;-63
2021/05/28 09:49:33;;;;;;;5.78;4.50;;;22.50;37.60;;;;;;4999594;28;20042;-63
2021/05/28 09:52:28;;;;;;;6.43;4.15;;;22.60;37.50;;;;;;5014488;28;20565;-63
2021/05/28 09:55:04;;;;;;;;;;;22.50;36.50;;;;;;4996157;28;20037;-63
2021/05/28 09:57:40;;;;;;;10.20;4.65;;;22.40;37.00;;;;;;5021906;28;19959;-62
2021/05/28 10:00:24;;;;;;;6.22;4.32;;;22.60;37.50;;;;;;5006101;28;20069;-63
2021/05/28 10:03:12;;;;;;;8.18;4.90;;;22.80;38.00;;;;;;5014784;28;20408;-63
2021/05/28 10:05:40;;;;;;;4.45;3.40;;;22.80;36.80;;;;;;5005931;28;20096;-63
2021/05/28 10:08:11;;;;;;;5.97;4.28;;;23.00;37.30;;;;;;5008008;28;20053;-63
2021/05/28 10:10:38;;;;;;;4.95;3.65;;;23.20;37.00;;;;;;4995230;28;21035;-63
2021/05/28 10:13:11;;;;;;;6.38;4.30;;;23.30;36.70;;;;;;4996893;28;20061;-63
2021/05/28 10:15:53;;;;;;;6.18;4.13;;;23.50;37.10;;;;;;4995542;28;20136;-63
2021/05/28 10:18:20;;;;;;;5.18;4.43;;;23.60;36.10;;;;;;5004326;28;20103;-63
2021/05/28 10:20:48;;;;;;;6.97;5.25;;;23.60;36.50;;;;;;5015948;28;20484;-65
2021/05/28 10:23:17;;;;;;;7.28;6.47;;;23.70;36.40;;;;;;5006371;28;20107;-63
2021/05/28 10:25:44;;;;;;;9.77;5.45;;;23.70;36.40;;;;;;5011625;28;20484;-64
2021/05/28 10:28:22;;;;;;;11.77;7.88;;;23.80;36.40;;;;;;5001972;28;20052;-63
2021/05/28 10:30:51;;;;;;;6.30;5.70;;;23.80;36.30;;;;;;5016514;28;20044;-62
2021/05/28 10:33:24;;;;;;;6.22;5.30;;;23.90;36.70;;;;;;5001303;28;20561;-64
2021/05/28 10:35:59;;;;;;;8.02;5.50;;;23.90;35.80;;;;;;5001309;28;20180;-62
2021/05/28 10:38:31;;;;;;;5.43;4.93;;;23.90;37.40;;;;;;5006402;28;20045;-64
2021/05/28 10:41:00;;;;;;;7.68;5.47;;;24.10;36.00;;;;;;5021406;28;20052;-63
2021/05/28 10:43:27;;;;;;;7.88;6.00;;;24.20;35.60;;;;;;5006882;28;20105;-63
2021/05/28 10:46:03;;;;;;;6.38;5.10;;;24.30;35.40;;;;;;5001067;28;20030;-63
2021/05/28 10:48:42;;;;;;;7.07;5.35;;;24.30;35.00;;;;;;5002350;28;20483;-63
2021/05/28 10:51:16;;;;;;;6.18;5.32;;;24.50;35.60;;;;;;5009734;28;20080;-63
2021/05/28 10:54:01;;;;;;;6.22;4.63;;;24.60;34.70;;;;;;5012271;28;20072;-63
2021/05/28 10:56:28;;;;;;;7.47;5.97;;;24.60;33.70;;;;;;4985364;28;20088;-64
2021/05/28 10:59:10;;;;;;;8.70;4.90;;;24.90;34.20;;;;;;5005044;28;20522;-64
2021/05/28 11:01:45;;;;;;;7.35;6.03;;;25.20;33.30;;;;;;5004488;28;20082;-64
2021/05/28 11:04:13;;;;;;;9.02;6.20;;;25.40;33.00;;;;;;5011503;28;20160;-64
2021/05/28 11:07:03;;;;;;;6.85;4.95;;;25.70;32.60;;;;;;5013946;28;20038;-64
2021/05/28 11:09:46;;;;;;;21.90;19.55;;;26.00;32.40;;;;;;4993430;28;20046;-65
2021/05/28 11:12:16;;;;;;;66.93;43.03;;;26.60;38.70;;;;;;5014077;28;20411;-65
2021/05/28 11:15:13;;;;;;;71.28;43.33;;;26.80;38.70;;;;;;5007591;28;20061;-63
2021/05/28 11:18:00;;;;;;;22.92;15.70;;;27.40;33.00;;;;;;4975058;28;20046;-64
2021/05/28 11:20:40;;;;;;;6.78;6.18;;;28.10;51.90;;;;;;4982868;28;20071;-64
2021/05/28 11:23:21;;;;;;;14.75;9.45;;;28.00;29.40;;;;;;5017232;28;20112;-64
2021/05/28 11:25:50;;;;;;;9.70;8.35;;;27.90;28.60;;;;;;5023976;28;20033;-64
2021/05/28 11:28:17;;;;;;;10.73;7.43;;;27.90;28.90;;;;;;5016851;28;20033;-64
2021/05/28 11:30:59;;;;;;;11.20;7.30;;;27.60;29.30;;;;;;5024423;28;20040;-64
2021/05/28 11:33:39;;;;;;;20.15;13.85;;;27.40;29.30;;;;;;4992551;28;20036;-64
2021/05/28 11:36:34;;;;;;;13.40;9.73;;;27.20;29.50;;;;;;5025820;28;20059;-64
2021/05/28 11:39:01;;;;;;;9.25;7.78;;;27.20;29.40;;;;;;4984360;28;20053;-64
2021/05/28 11:41:45;;;;;;;11.45;10.10;;;27.40;29.40;;;;;;5027202;28;20447;-65
2021/05/28 11:44:12;;;;;;;14.77;10.25;;;27.70;28.40;;;;;;5025221;28;20500;-64
2021/05/28 11:46:44;;;;;;;10.55;9.00;;;28.10;28.80;;;;;;5005608;28;20104;-64
2021/05/28 11:49:10;;;;;;;9.35;6.95;;;28.50;28.60;;;;;;5003620;28;20038;-64
2021/05/28 11:51:36;;;;;;;12.15;9.00;;;28.80;28.90;;;;;;5017530;28;20058;-64
2021/05/28 11:54:19;;;;;;;11.77;7.22;;;28.90;28.30;;;;;;4992399;28;20100;-64
2021/05/28 11:56:58;;;;;;;34.13;22.83;;;29.00;27.50;;;;;;5012481;28;20049;-64
2021/05/28 11:59:43;;;;;;;13.43;8.50;;;29.00;28.10;;;;;;4983022;28;20077;-63
2021/05/28 12:02:09;;;;;;;8.48;6.85;;;28.80;27.80;;;;;;5001721;28;20041;-64
2021/05/28 12:04:35;;;;;;;13.07;9.77;;;28.60;28.00;;;;;;5000298;28;20050;-63
2021/05/28 12:07:08;;;;;;;12.65;8.68;;;28.50;28.00;;;;;;5015905;28;20037;-64
2021/05/28 12:09:33;;;;;;;14.95;11.35;;;28.70;28.00;;;;;;5008278;28;20104;-63
2021/05/28 12:11:59;;;;;;;20.85;15.18;;;28.70;28.40;;;;;;5010845;28;20104;-63
2021/05/28 12:14:25;;;;;;;13.68;7.40;;;28.60;28.50;;;;;;4991643;28;20060;-63
2021/05/28 12:16:50;;;;;;;18.33;13.88;;;28.70;28.10;;;;;;5004400;28;20057;-63
2021/05/28 12:19:16;;;;;;;12.45;11.13;;;28.80;28.50;;;;;;5014721;28;20521;-64
2021/05/28 12:21:42;;;;;;;8.60;7.72;;;28.90;28.50;;;;;;4997539;28;20052;-63
2021/05/28 12:24:08;;;;;;;16.13;13.43;;;29.00;28.60;;;;;;4991726;28;20422;-64
2021/05/28 12:26:34;;;;;;;9.07;8.05;;;29.30;28.70;;;;;;5007004;28;20049;-64
2021/05/28 12:29:02;;;;;;;15.82;11.98;;;29.10;28.50;;;;;;4998089;28;20057;-64
2021/05/28 12:31:30;;;;;;;8.40;7.70;;;29.00;28.20;;;;;;5009280;28;20037;-64
2021/05/28 12:34:08;;;;;;;13.68;9.13;;;29.20;28.80;;;;;;5007878;28;20404;-63
2021/05/28 12:36:38;;;;;;;9.63;7.85;;;29.40;28.80;;;;;;4998334;28;20057;-63
2021/05/28 12:39:14;;;;;;;11.75;10.25;;;29.70;28.50;;;;;;4997029;28;20443;-63
2021/05/28 12:41:42;;;;;;;9.35;8.07;;;29.70;27.90;;;;;;5003534;28;20045;-63
2021/05/28 12:44:09;;;;;;;9.75;8.23;;;29.80;28.30;;;;;;5003288;28;20100;-64
2021/05/28 12:46:38;;;;;;;10.65;7.60;;;30.00;28.40;;;;;;4990952;28;20066;-63
2021/05/28 12:49:12;;;;;;;10.60;9.05;;;30.10;27.80;;;;;;4995410;28;20438;-64
2021/05/28 12:51:38;;;;;;;;;;;30.40;27.60;;;;;;5004103;28;20487;-64